sensor_id;sensor_type;location;lat;lon;timestamp;pressure;altitude;pressure_sealevel;temperature;humidity
5298;BME280;14738;42.668;23.250;2023-04-23T00:00:48;48398.25;;;-141.90;100.00
5298;BME280;14738;42.668;23.250;2023-04-23T00:03:13;48400.22;;;-141.90;100.00
5298;BME280;14738;42.668;23.250;2023-04-23T00:05:39;48390.31;;;-141.90;100.00
5298;BME280;14738;42.668;23.250;2023-04-23T00:08:06;48414.13;;;-141.90;100.00
5298;BME280;14738;42.668;23.250;2023-04-23T00:10:32;48418.09;;;-141.90;100.00
5298;BME280;14738;42.668;23.250;2023-04-23T00:12:58;48430.00;;;-141.90;100.00
5298;BME280;14738;42.668;23.250;2023-04-23T00:15:24;48420.09;;;-141.90;100.00
5298;BME280;14738;42.668;23.250;2023-04-23T00:17:49;48443.91;;;-141.90;100.00
5298;BME280;14738;42.668;23.250;2023-04-23T00:20:15;48437.94;;;-141.90;100.00
5298;BME280;14738;42.668;23.250;2023-04-23T00:22:42;48437.94;;;-141.90;100.00
5298;BME280;14738;42.668;23.250;2023-04-23T00:25:08;48396.25;;;-141.90;100.00
5298;BME280;14738;42.668;23.250;2023-04-23T00:27:34;48418.09;;;-141.90;100.00
5298;BME280;14738;42.668;23.250;2023-04-23T00:30:00;48461.78;;;-141.90;100.00
5298;BME280;14738;42.668;23.250;2023-04-23T00:32:25;48410.16;;;-141.90;100.00
5298;BME280;14738;42.668;23.250;2023-04-23T00:34:51;48443.91;;;-141.90;100.00
5298;BME280;14738;42.668;23.250;2023-04-23T00:37:16;48422.06;;;-141.90;100.00
5298;BME280;14738;42.668;23.250;2023-04-23T00:39:42;48433.97;;;-141.90;100.00
5298;BME280;14738;42.668;23.250;2023-04-23T00:42:09;48441.91;;;-141.90;100.00
5298;BME280;14738;42.668;23.250;2023-04-23T00:44:39;48461.78;;;-141.90;100.00
5298;BME280;14738;42.668;23.250;2023-04-23T00:47:09;48422.06;;;-141.90;100.00
5298;BME280;14738;42.668;23.250;2023-04-23T00:49:35;48426.03;;;-141.90;100.00
5298;BME280;14738;42.668;23.250;2023-04-23T00:52:02;48441.91;;;-141.90;100.00
5298;BME280;14738;42.668;23.250;2023-04-23T00:54:28;48437.94;;;-141.90;100.00
5298;BME280;14738;42.668;23.250;2023-04-23T00:56:54;48408.16;;;-141.90;100.00
5298;BME280;14738;42.668;23.250;2023-04-23T00:59:23;48414.13;;;-141.90;100.00
5298;BME280;14738;42.668;23.250;2023-04-23T01:01:49;48426.03;;;-141.90;100.00
5298;BME280;14738;42.668;23.250;2023-04-23T01:04:16;48430.00;;;-141.90;100.00
5298;BME280;14738;42.668;23.250;2023-04-23T01:06:42;48441.91;;;-141.90;100.00
5298;BME280;14738;42.668;23.250;2023-04-23T01:09:08;48441.91;;;-141.90;100.00
5298;BME280;14738;42.668;23.250;2023-04-23T01:11:39;48441.91;;;-141.90;100.00
5298;BME280;14738;42.668;23.250;2023-04-23T01:14:07;48432.00;;;-141.90;100.00
5298;BME280;14738;42.668;23.250;2023-04-23T01:16:33;48453.81;;;-141.90;100.00
5298;BME280;14738;42.668;23.250;2023-04-23T01:18:59;48430.00;;;-141.90;100.00
5298;BME280;14738;42.668;23.250;2023-04-23T01:21:27;48455.81;;;-141.90;100.00
5298;BME280;14738;42.668;23.250;2023-04-23T01:23:53;48461.78;;;-141.90;100.00
5298;BME280;14738;42.668;23.250;2023-04-23T01:26:18;48453.81;;;-141.90;100.00
5298;BME280;14738;42.668;23.250;2023-04-23T01:28:44;48426.03;;;-141.90;100.00
5298;BME280;14738;42.668;23.250;2023-04-23T01:31:11;48449.84;;;-141.90;100.00
5298;BME280;14738;42.668;23.250;2023-04-23T01:33:39;48430.00;;;-141.90;100.00
5298;BME280;14738;42.668;23.250;2023-04-23T01:36:05;48441.91;;;-141.90;100.00
5298;BME280;14738;42.668;23.250;2023-04-23T01:38:32;48443.91;;;-141.90;100.00
5298;BME280;14738;42.668;23.250;2023-04-23T01:40:57;48455.81;;;-141.90;100.00
5298;BME280;14738;42.668;23.250;2023-04-23T01:43:24;48428.03;;;-141.90;100.00
5298;BME280;14738;42.668;23.250;2023-04-23T01:45:49;48443.91;;;-141.90;100.00
5298;BME280;14738;42.668;23.250;2023-04-23T01:48:15;48437.94;;;-141.90;100.00
5298;BME280;14738;42.668;23.250;2023-04-23T01:50:41;48445.88;;;-141.90;100.00
5298;BME280;14738;42.668;23.250;2023-04-23T01:53:07;48453.81;;;-141.90;100.00
5298;BME280;14738;42.668;23.250;2023-04-23T01:55:33;48445.88;;;-141.90;100.00
5298;BME280;14738;42.668;23.250;2023-04-23T01:57:58;48457.81;;;-141.90;100.00
5298;BME280;14738;42.668;23.250;2023-04-23T02:00:24;48433.97;;;-141.90;100.00
5298;BME280;14738;42.668;23.250;2023-04-23T02:02:49;48437.94;;;-141.90;100.00
5298;BME280;14738;42.668;23.250;2023-04-23T02:05:18;48461.78;;;-141.90;100.00
5298;BME280;14738;42.668;23.250;2023-04-23T02:07:48;48445.88;;;-141.90;100.00
5298;BME280;14738;42.668;23.250;2023-04-23T02:10:14;48453.81;;;-141.90;100.00
5298;BME280;14738;42.668;23.250;2023-04-23T02:12:40;48443.91;;;-141.90;100.00
5298;BME280;14738;42.668;23.250;2023-04-23T02:15:07;48459.78;;;-141.90;100.00
5298;BME280;14738;42.668;23.250;2023-04-23T02:17:33;48489.56;;;-141.90;100.00
5298;BME280;14738;42.668;23.250;2023-04-23T02:19:59;48430.00;;;-141.90;100.00
5298;BME280;14738;42.668;23.250;2023-04-23T02:22:26;48449.84;;;-141.90;100.00
5298;BME280;14738;42.668;23.250;2023-04-23T02:24:52;48459.78;;;-141.90;100.00
5298;BME280;14738;42.668;23.250;2023-04-23T02:27:18;48449.84;;;-141.90;100.00
5298;BME280;14738;42.668;23.250;2023-04-23T02:29:44;48441.91;;;-141.90;100.00
5298;BME280;14738;42.668;23.250;2023-04-23T02:32:09;48430.00;;;-141.90;100.00
5298;BME280;14738;42.668;23.250;2023-04-23T02:34:35;48467.72;;;-141.90;100.00
5298;BME280;14738;42.668;23.250;2023-04-23T02:37:00;48449.84;;;-141.90;100.00
5298;BME280;14738;42.668;23.250;2023-04-23T02:39:26;48449.84;;;-141.90;100.00
5298;BME280;14738;42.668;23.250;2023-04-23T02:41:51;48430.00;;;-141.90;100.00
5298;BME280;14738;42.668;23.250;2023-04-23T02:44:16;48447.88;;;-141.90;100.00
5298;BME280;14738;42.668;23.250;2023-04-23T02:46:42;48455.81;;;-141.90;100.00
5298;BME280;14738;42.668;23.250;2023-04-23T02:49:07;48449.84;;;-141.90;100.00
5298;BME280;14738;42.668;23.250;2023-04-23T02:51:33;48445.88;;;-141.90;100.00
5298;BME280;14738;42.668;23.250;2023-04-23T02:53:58;48445.88;;;-141.90;100.00
5298;BME280;14738;42.668;23.250;2023-04-23T02:56:24;48461.78;;;-141.90;100.00
5298;BME280;14738;42.668;23.250;2023-04-23T02:58:49;48477.66;;;-141.90;100.00
5298;BME280;14738;42.668;23.250;2023-04-23T03:01:15;48461.78;;;-141.90;100.00
5298;BME280;14738;42.668;23.250;2023-04-23T03:03:41;48469.72;;;-141.90;100.00
5298;BME280;14738;42.668;23.250;2023-04-23T03:06:06;48426.03;;;-141.90;100.00
5298;BME280;14738;42.668;23.250;2023-04-23T03:08:32;48447.88;;;-141.90;100.00
5298;BME280;14738;42.668;23.250;2023-04-23T03:10:57;48412.13;;;-141.90;100.00
5298;BME280;14738;42.668;23.250;2023-04-23T03:13:23;48487.56;;;-141.90;100.00
5298;BME280;14738;42.668;23.250;2023-04-23T03:15:49;48477.66;;;-141.90;100.00
5298;BME280;14738;42.668;23.250;2023-04-23T03:18:15;48493.53;;;-141.90;100.00
5298;BME280;14738;42.668;23.250;2023-04-23T03:20:40;48463.75;;;-141.90;100.00
5298;BME280;14738;42.668;23.250;2023-04-23T03:23:06;48467.72;;;-141.90;100.00
5298;BME280;14738;42.668;23.250;2023-04-23T03:25:32;48445.88;;;-141.90;100.00
5298;BME280;14738;42.668;23.250;2023-04-23T03:27:57;48449.84;;;-141.90;100.00
5298;BME280;14738;42.668;23.250;2023-04-23T03:30:23;48465.75;;;-141.90;100.00
5298;BME280;14738;42.668;23.250;2023-04-23T03:32:49;48481.63;;;-141.90;100.00
5298;BME280;14738;42.668;23.250;2023-04-23T03:35:15;48481.63;;;-141.90;100.00
5298;BME280;14738;42.668;23.250;2023-04-23T03:37:41;48449.84;;;-141.90;100.00
5298;BME280;14738;42.668;23.250;2023-04-23T03:40:07;48461.78;;;-141.90;100.00
5298;BME280;14738;42.668;23.250;2023-04-23T03:42:33;48441.91;;;-141.90;100.00
5298;BME280;14738;42.668;23.250;2023-04-23T03:44:59;48457.81;;;-141.90;100.00
5298;BME280;14738;42.668;23.250;2023-04-23T03:47:25;48441.91;;;-141.90;100.00
5298;BME280;14738;42.668;23.250;2023-04-23T03:49:51;48449.84;;;-141.90;100.00
5298;BME280;14738;42.668;23.250;2023-04-23T03:52:16;48441.91;;;-141.90;100.00
5298;BME280;14738;42.668;23.250;2023-04-23T03:54:42;48445.88;;;-141.90;100.00
5298;BME280;14738;42.668;23.250;2023-04-23T03:57:08;48441.91;;;-141.90;100.00
5298;BME280;14738;42.668;23.250;2023-04-23T03:59:33;48435.97;;;-141.90;100.00
5298;BME280;14738;42.668;23.250;2023-04-23T04:01:59;48430.00;;;-141.90;100.00
5298;BME280;14738;42.668;23.250;2023-04-23T04:04:24;48433.97;;;-141.90;100.00
5298;BME280;14738;42.668;23.250;2023-04-23T04:06:50;48426.03;;;-141.90;100.00
5298;BME280;14738;42.668;23.250;2023-04-23T04:09:15;48443.91;;;-141.90;100.00
5298;BME280;14738;42.668;23.250;2023-04-23T04:11:41;48432.00;;;-141.90;100.00
5298;BME280;14738;42.668;23.250;2023-04-23T04:14:06;48394.28;;;-141.90;100.00
5298;BME280;14738;42.668;23.250;2023-04-23T04:16:32;48420.09;;;-141.90;100.00
5298;BME280;14738;42.668;23.250;2023-04-23T04:18:57;48422.06;;;-141.90;100.00
5298;BME280;14738;42.668;23.250;2023-04-23T04:21:22;48445.88;;;-141.90;100.00
5298;BME280;14738;42.668;23.250;2023-04-23T04:23:48;48390.31;;;-141.90;100.00
5298;BME280;14738;42.668;23.250;2023-04-23T04:26:13;48398.25;;;-141.90;100.00
5298;BME280;14738;42.668;23.250;2023-04-23T04:28:39;48386.34;;;-141.90;100.00
5298;BME280;14738;42.668;23.250;2023-04-23T04:31:05;48396.25;;;-141.90;100.00
5298;BME280;14738;42.668;23.250;2023-04-23T04:33:31;48414.13;;;-141.90;43.42
5298;BME280;14738;42.668;23.250;2023-04-23T04:35:57;48414.13;;;-141.90;44.27
5298;BME280;14738;42.668;23.250;2023-04-23T04:38:24;48437.94;;;-141.90;41.12
5298;BME280;14738;42.668;23.250;2023-04-23T04:40:50;48428.03;;;-141.90;39.58
5298;BME280;14738;42.668;23.250;2023-04-23T04:43:15;48410.16;;;-141.90;39.95
5298;BME280;14738;42.668;23.250;2023-04-23T04:45:41;48414.13;;;-141.90;39.34
5298;BME280;14738;42.668;23.250;2023-04-23T04:48:07;48433.97;;;-141.90;39.10
5298;BME280;14738;42.668;23.250;2023-04-23T04:50:33;48410.16;;;-141.90;39.74
5298;BME280;14738;42.668;23.250;2023-04-23T04:53:00;48433.97;;;-141.90;38.28
5298;BME280;14738;42.668;23.250;2023-04-23T04:55:25;48410.16;;;-141.90;37.71
5298;BME280;14738;42.668;23.250;2023-04-23T04:57:52;48432.00;;;-141.90;37.15
5298;BME280;14738;42.668;23.250;2023-04-23T05:00:25;48441.91;;;-141.90;36.30
5298;BME280;14738;42.668;23.250;2023-04-23T05:02:52;48422.06;;;-141.90;36.26
5298;BME280;14738;42.668;23.250;2023-04-23T05:05:18;48445.88;;;-141.90;35.11
5298;BME280;14738;42.668;23.250;2023-04-23T05:07:44;48479.63;;;-141.90;34.29
5298;BME280;14738;42.668;23.250;2023-04-23T05:10:10;48447.88;;;-141.90;34.58
5298;BME280;14738;42.668;23.250;2023-04-23T05:12:36;48432.00;;;-141.90;34.38
5298;BME280;14738;42.668;23.250;2023-04-23T05:15:09;48445.88;;;-141.90;34.13
5298;BME280;14738;42.668;23.250;2023-04-23T05:17:36;48441.91;;;-141.90;34.40
5298;BME280;14738;42.668;23.250;2023-04-23T05:20:02;48433.97;;;-141.90;34.63
5298;BME280;14738;42.668;23.250;2023-04-23T05:22:27;48414.13;;;-141.90;36.43
5298;BME280;14738;42.668;23.250;2023-04-23T05:24:53;48408.16;;;-141.90;35.95
5298;BME280;14738;42.668;23.250;2023-04-23T05:27:18;48453.81;;;-141.90;34.60
5298;BME280;14738;42.668;23.250;2023-04-23T05:29:44;48463.75;;;-141.90;32.80
5298;BME280;14738;42.668;23.250;2023-04-23T05:32:09;48515.38;;;-141.90;30.71
5298;BME280;14738;42.668;23.250;2023-04-23T05:34:35;48471.69;;;-141.90;31.12
5298;BME280;14738;42.668;23.250;2023-04-23T05:37:01;48441.91;;;-141.90;31.97
5298;BME280;14738;42.668;23.250;2023-04-23T05:39:26;48426.03;;;-141.90;34.38
5298;BME280;14738;42.668;23.250;2023-04-23T05:41:53;48437.94;;;-141.90;34.55
5298;BME280;14738;42.668;23.250;2023-04-23T05:44:18;48443.91;;;-141.90;34.60
5298;BME280;14738;42.668;23.250;2023-04-23T05:46:44;48453.81;;;-141.90;33.88
5298;BME280;14738;42.668;23.250;2023-04-23T05:49:09;48426.03;;;-141.90;33.99
5298;BME280;14738;42.668;23.250;2023-04-23T05:51:35;48435.97;;;-141.90;35.70
5298;BME280;14738;42.668;23.250;2023-04-23T05:54:00;48394.28;;;-141.90;36.31
5298;BME280;14738;42.668;23.250;2023-04-23T05:56:25;48430.00;;;-141.90;36.68
5298;BME280;14738;42.668;23.250;2023-04-23T05:58:51;48437.94;;;-141.90;35.73
5298;BME280;14738;42.668;23.250;2023-04-23T06:01:16;48437.94;;;-141.90;35.33
5298;BME280;14738;42.668;23.250;2023-04-23T06:03:42;48437.94;;;-141.90;36.56
5298;BME280;14738;42.668;23.250;2023-04-23T06:06:10;48453.81;;;-141.90;35.60
5298;BME280;14738;42.668;23.250;2023-04-23T06:08:37;48469.72;;;-141.90;32.80
5298;BME280;14738;42.668;23.250;2023-04-23T06:11:03;48467.72;;;-141.90;31.09
5298;BME280;14738;42.668;23.250;2023-04-23T06:13:29;48495.53;;;-141.90;30.62
5298;BME280;14738;42.668;23.250;2023-04-23T06:15:55;48499.50;;;-141.90;29.41
5298;BME280;14738;42.668;23.250;2023-04-23T06:18:21;48473.69;;;-141.90;30.32
5298;BME280;14738;42.668;23.250;2023-04-23T06:20:46;48441.91;;;-141.90;31.53
5298;BME280;14738;42.668;23.250;2023-04-23T06:23:13;48445.88;;;-141.90;31.31
5298;BME280;14738;42.668;23.250;2023-04-23T06:25:38;48465.75;;;-141.90;32.20
5298;BME280;14738;42.668;23.250;2023-04-23T06:28:03;48461.78;;;-141.90;31.34
5298;BME280;14738;42.668;23.250;2023-04-23T06:30:29;48481.63;;;-141.90;30.39
5298;BME280;14738;42.668;23.250;2023-04-23T06:32:54;48477.66;;;-141.90;30.49
5298;BME280;14738;42.668;23.250;2023-04-23T06:35:20;48489.56;;;-141.90;29.72
5298;BME280;14738;42.668;23.250;2023-04-23T06:37:45;48479.63;;;-141.90;31.06
5298;BME280;14738;42.668;23.250;2023-04-23T06:40:10;48499.50;;;-141.90;30.68
5298;BME280;14738;42.668;23.250;2023-04-23T06:42:36;48465.75;;;-141.90;31.59
5298;BME280;14738;42.668;23.250;2023-04-23T06:45:01;48469.72;;;-141.90;30.75
5298;BME280;14738;42.668;23.250;2023-04-23T06:47:30;48457.81;;;-141.90;31.77
5298;BME280;14738;42.668;23.250;2023-04-23T06:49:56;48453.81;;;-141.90;32.50
5298;BME280;14738;42.668;23.250;2023-04-23T06:52:22;48461.78;;;-141.90;32.79
5298;BME280;14738;42.668;23.250;2023-04-23T06:54:47;48418.09;;;-141.90;32.74
5298;BME280;14738;42.668;23.250;2023-04-23T06:57:13;48475.66;;;-141.90;33.59
5298;BME280;14738;42.668;23.250;2023-04-23T06:59:38;48447.88;;;-141.90;33.92
5298;BME280;14738;42.668;23.250;2023-04-23T07:02:03;48418.09;;;-141.90;35.46
5298;BME280;14738;42.668;23.250;2023-04-23T07:04:29;48412.13;;;-141.90;37.13
5298;BME280;14738;42.668;23.250;2023-04-23T07:06:54;48396.25;;;-141.90;38.55
5298;BME280;14738;42.668;23.250;2023-04-23T07:09:20;48398.25;;;-141.90;38.38
5298;BME280;14738;42.668;23.250;2023-04-23T07:11:45;48390.31;;;-141.90;38.85
5298;BME280;14738;42.668;23.250;2023-04-23T07:14:11;48422.06;;;-141.90;38.35
5298;BME280;14738;42.668;23.250;2023-04-23T07:16:36;48418.09;;;-141.90;38.10
5298;BME280;14738;42.668;23.250;2023-04-23T07:19:02;48410.16;;;-141.90;38.50
5298;BME280;14738;42.668;23.250;2023-04-23T07:21:27;48433.97;;;-141.90;38.96
5298;BME280;14738;42.668;23.250;2023-04-23T07:23:55;48414.13;;;-141.90;39.51
5298;BME280;14738;42.668;23.250;2023-04-23T07:26:21;48430.00;;;-141.90;39.74
5298;BME280;14738;42.668;23.250;2023-04-23T07:28:46;48398.25;;;-141.90;38.83
5298;BME280;14738;42.668;23.250;2023-04-23T07:31:13;48392.28;;;-141.90;39.68
5298;BME280;14738;42.668;23.250;2023-04-23T07:33:41;48418.09;;;-141.90;39.62
5298;BME280;14738;42.668;23.250;2023-04-23T07:36:06;48416.09;;;-141.90;39.82
5298;BME280;14738;42.668;23.250;2023-04-23T07:38:32;48420.09;;;-141.90;39.77
5298;BME280;14738;42.668;23.250;2023-04-23T07:40:57;48406.19;;;-141.90;41.49
5298;BME280;14738;42.668;23.250;2023-04-23T07:43:22;48426.03;;;-141.90;39.96
5298;BME280;14738;42.668;23.250;2023-04-23T07:45:48;48394.28;;;-141.90;40.31
5298;BME280;14738;42.668;23.250;2023-04-23T07:48:13;48402.22;;;-141.90;39.26
5298;BME280;14738;42.668;23.250;2023-04-23T07:50:38;48418.09;;;-141.90;39.10
5298;BME280;14738;42.668;23.250;2023-04-23T07:53:04;48424.06;;;-141.90;39.35
5298;BME280;14738;42.668;23.250;2023-04-23T07:55:29;48392.28;;;-141.90;39.95
5298;BME280;14738;42.668;23.250;2023-04-23T07:57:55;48406.19;;;-141.90;39.82
5298;BME280;14738;42.668;23.250;2023-04-23T08:00:20;48435.97;;;-141.90;39.28
5298;BME280;14738;42.668;23.250;2023-04-23T08:02:46;48402.22;;;-141.90;39.24
5298;BME280;14738;42.668;23.250;2023-04-23T08:05:11;48416.09;;;-141.90;40.02
5298;BME280;14738;42.668;23.250;2023-04-23T08:07:36;48430.00;;;-141.90;41.07
5298;BME280;14738;42.668;23.250;2023-04-23T08:10:02;48406.19;;;-141.90;41.13
5298;BME280;14738;42.668;23.250;2023-04-23T08:12:30;48424.06;;;-141.90;40.07
5298;BME280;14738;42.668;23.250;2023-04-23T08:14:58;48435.97;;;-141.90;39.78
5298;BME280;14738;42.668;23.250;2023-04-23T08:17:23;48418.09;;;-141.90;40.43
5298;BME280;14738;42.668;23.250;2023-04-23T08:19:48;48414.13;;;-141.90;40.72
5298;BME280;14738;42.668;23.250;2023-04-23T08:22:14;48414.13;;;-141.90;40.26
5298;BME280;14738;42.668;23.250;2023-04-23T08:24:41;48416.09;;;-141.90;39.11
5298;BME280;14738;42.668;23.250;2023-04-23T08:27:07;48402.22;;;-141.90;39.81
5298;BME280;14738;42.668;23.250;2023-04-23T08:29:32;48414.13;;;-141.90;39.98
5298;BME280;14738;42.668;23.250;2023-04-23T08:31:57;48418.09;;;-141.90;38.83
5298;BME280;14738;42.668;23.250;2023-04-23T08:34:23;48418.09;;;-141.90;38.53
5298;BME280;14738;42.668;23.250;2023-04-23T08:36:48;48406.19;;;-141.90;38.05
5298;BME280;14738;42.668;23.250;2023-04-23T08:39:14;48463.75;;;-141.90;37.52
5298;BME280;14738;42.668;23.250;2023-04-23T08:41:40;48408.16;;;-141.90;37.24
5298;BME280;14738;42.668;23.250;2023-04-23T08:44:16;48418.09;;;-141.90;37.44
5298;BME280;14738;42.668;23.250;2023-04-23T08:46:43;48433.97;;;-141.90;38.72
5298;BME280;14738;42.668;23.250;2023-04-23T08:49:16;48422.06;;;-141.90;38.62
5298;BME280;14738;42.668;23.250;2023-04-23T08:51:47;48418.09;;;-141.90;37.93
5298;BME280;14738;42.668;23.250;2023-04-23T08:54:21;48432.00;;;-141.90;37.81
5298;BME280;14738;42.668;23.250;2023-04-23T08:56:50;48410.16;;;-141.90;37.00
5298;BME280;14738;42.668;23.250;2023-04-23T08:59:17;48414.13;;;-141.90;38.23
5298;BME280;14738;42.668;23.250;2023-04-23T09:01:42;48394.28;;;-141.90;37.57
5298;BME280;14738;42.668;23.250;2023-04-23T09:04:08;48422.06;;;-141.90;38.84
5298;BME280;14738;42.668;23.250;2023-04-23T09:06:35;48400.22;;;-141.90;37.58
5298;BME280;14738;42.668;23.250;2023-04-23T09:09:01;48435.97;;;-141.90;37.41
5298;BME280;14738;42.668;23.250;2023-04-23T09:11:28;48449.84;;;-141.90;37.10
5298;BME280;14738;42.668;23.250;2023-04-23T09:13:55;48416.09;;;-141.90;37.48
5298;BME280;14738;42.668;23.250;2023-04-23T09:16:21;48404.19;;;-141.90;37.74
5298;BME280;14738;42.668;23.250;2023-04-23T09:18:46;48453.81;;;-141.90;36.41
5298;BME280;14738;42.668;23.250;2023-04-23T09:21:13;48410.16;;;-141.90;36.58
5298;BME280;14738;42.668;23.250;2023-04-23T09:23:39;48424.06;;;-141.90;37.40
5298;BME280;14738;42.668;23.250;2023-04-23T09:26:05;48408.16;;;-141.90;37.05
5298;BME280;14738;42.668;23.250;2023-04-23T09:28:35;48402.22;;;-141.90;36.79
5298;BME280;14738;42.668;23.250;2023-04-23T09:31:01;48433.97;;;-141.90;37.22
5298;BME280;14738;42.668;23.250;2023-04-23T09:33:27;48418.09;;;-141.90;37.03
5298;BME280;14738;42.668;23.250;2023-04-23T09:35:53;48426.03;;;-141.90;36.99
5298;BME280;14738;42.668;23.250;2023-04-23T09:38:18;48435.97;;;-141.90;35.33
5298;BME280;14738;42.668;23.250;2023-04-23T09:40:44;48437.94;;;-141.90;36.04
5298;BME280;14738;42.668;23.250;2023-04-23T09:43:10;48430.00;;;-141.90;36.66
5298;BME280;14738;42.668;23.250;2023-04-23T09:45:35;48435.97;;;-141.90;34.80
5298;BME280;14738;42.668;23.250;2023-04-23T09:48:02;48461.78;;;-141.90;33.88
5298;BME280;14738;42.668;23.250;2023-04-23T09:50:35;48437.94;;;-141.90;35.09
5298;BME280;14738;42.668;23.250;2023-04-23T09:53:01;48451.84;;;-141.90;36.25
5298;BME280;14738;42.668;23.250;2023-04-23T09:55:31;48432.00;;;-141.90;34.89
5298;BME280;14738;42.668;23.250;2023-04-23T09:58:06;48433.97;;;-141.90;35.94
5298;BME280;14738;42.668;23.250;2023-04-23T10:00:36;48445.88;;;-141.90;35.76
5298;BME280;14738;42.668;23.250;2023-04-23T10:03:03;48447.88;;;-141.90;34.42
5298;BME280;14738;42.668;23.250;2023-04-23T10:05:29;48430.00;;;-141.90;33.72
5298;BME280;14738;42.668;23.250;2023-04-23T10:07:58;48432.00;;;-141.90;33.93
5298;BME280;14738;42.668;23.250;2023-04-23T10:10:24;48457.81;;;-141.90;34.14
5298;BME280;14738;42.668;23.250;2023-04-23T10:12:51;48453.81;;;-141.90;34.25
5298;BME280;14738;42.668;23.250;2023-04-23T10:15:22;48424.06;;;-141.90;33.42
5298;BME280;14738;42.668;23.250;2023-04-23T10:17:47;48475.66;;;-141.90;33.48
5298;BME280;14738;42.668;23.250;2023-04-23T10:20:15;48430.00;;;-141.90;34.11
5298;BME280;14738;42.668;23.250;2023-04-23T10:22:43;48451.84;;;-141.90;34.03
5298;BME280;14738;42.668;23.250;2023-04-23T10:25:10;48433.97;;;-141.90;35.14
5298;BME280;14738;42.668;23.250;2023-04-23T10:27:38;48449.84;;;-141.90;32.95
5298;BME280;14738;42.668;23.250;2023-04-23T10:30:05;48437.94;;;-141.90;33.55
5298;BME280;14738;42.668;23.250;2023-04-23T10:32:32;48439.94;;;-141.90;32.77
5298;BME280;14738;42.668;23.250;2023-04-23T10:34:58;48441.91;;;-141.90;33.00
5298;BME280;14738;42.668;23.250;2023-04-23T10:37:24;48433.97;;;-141.90;33.40
5298;BME280;14738;42.668;23.250;2023-04-23T10:39:53;48424.06;;;-141.90;33.85
5298;BME280;14738;42.668;23.250;2023-04-23T10:42:19;48451.84;;;-141.90;33.64
5298;BME280;14738;42.668;23.250;2023-04-23T10:44:45;48439.94;;;-141.90;33.04
5298;BME280;14738;42.668;23.250;2023-04-23T10:47:15;48422.06;;;-141.90;33.30
5298;BME280;14738;42.668;23.250;2023-04-23T10:49:41;48439.94;;;-141.90;33.55
5298;BME280;14738;42.668;23.250;2023-04-23T10:54:39;48422.06;;;-141.90;32.93
5298;BME280;14738;42.668;23.250;2023-04-23T10:57:06;48437.94;;;-141.90;31.67
5298;BME280;14738;42.668;23.250;2023-04-23T10:59:33;48432.00;;;-141.90;32.07
5298;BME280;14738;42.668;23.250;2023-04-23T11:02:10;48437.94;;;-141.90;31.17
5298;BME280;14738;42.668;23.250;2023-04-23T11:04:41;48455.81;;;-141.90;32.42
5298;BME280;14738;42.668;23.250;2023-04-23T11:07:10;48443.91;;;-141.90;30.64
5298;BME280;14738;42.668;23.250;2023-04-23T11:09:44;48457.81;;;-141.90;30.82
5298;BME280;14738;42.668;23.250;2023-04-23T11:12:13;48422.06;;;-141.90;30.76
5298;BME280;14738;42.668;23.250;2023-04-23T11:14:48;48449.84;;;-141.90;31.77
5298;BME280;14738;42.668;23.250;2023-04-23T11:17:16;48441.91;;;-141.90;29.49
5298;BME280;14738;42.668;23.250;2023-04-23T11:22:44;48469.72;;;-141.90;28.06
5298;BME280;14738;42.668;23.250;2023-04-23T11:25:12;48453.81;;;-141.90;28.13
5298;BME280;14738;42.668;23.250;2023-04-23T11:27:42;48465.75;;;-141.90;29.30
5298;BME280;14738;42.668;23.250;2023-04-23T11:30:16;48445.88;;;-141.90;28.27
5298;BME280;14738;42.668;23.250;2023-04-23T11:32:46;48461.78;;;-141.90;27.66
5298;BME280;14738;42.668;23.250;2023-04-23T11:35:17;48469.72;;;-141.90;27.88
5298;BME280;14738;42.668;23.250;2023-04-23T11:37:44;48457.81;;;-141.90;27.39
5298;BME280;14738;42.668;23.250;2023-04-23T11:40:11;48457.81;;;-141.90;26.03
5298;BME280;14738;42.668;23.250;2023-04-23T11:42:42;48445.88;;;-141.90;25.88
5298;BME280;14738;42.668;23.250;2023-04-23T11:45:20;48459.78;;;-141.90;26.45
5298;BME280;14738;42.668;23.250;2023-04-23T11:47:51;48443.91;;;-141.90;25.80
5298;BME280;14738;42.668;23.250;2023-04-23T11:50:28;48441.91;;;-141.90;25.19
5298;BME280;14738;42.668;23.250;2023-04-23T11:53:04;48471.69;;;-141.90;25.93
5298;BME280;14738;42.668;23.250;2023-04-23T11:55:31;48449.84;;;-141.90;26.51
5298;BME280;14738;42.668;23.250;2023-04-23T11:57:56;48430.00;;;-141.90;26.87
5298;BME280;14738;42.668;23.250;2023-04-23T12:00:24;48461.78;;;-141.90;25.47
5298;BME280;14738;42.668;23.250;2023-04-23T12:02:54;48437.94;;;-141.90;25.11
5298;BME280;14738;42.668;23.250;2023-04-23T12:07:52;48477.66;;;-141.90;25.30
5298;BME280;14738;42.668;23.250;2023-04-23T12:10:19;48465.75;;;-141.90;24.32
5298;BME280;14738;42.668;23.250;2023-04-23T12:12:48;48471.69;;;-141.90;23.79
5298;BME280;14738;42.668;23.250;2023-04-23T12:15:14;48441.91;;;-141.90;23.75
5298;BME280;14738;42.668;23.250;2023-04-23T12:17:40;48445.88;;;-141.90;23.76
5298;BME280;14738;42.668;23.250;2023-04-23T12:20:09;48443.91;;;-141.90;23.66
5298;BME280;14738;42.668;23.250;2023-04-23T12:22:36;48451.84;;;-141.90;23.74
5298;BME280;14738;42.668;23.250;2023-04-23T12:25:04;48473.69;;;-141.90;23.09
5298;BME280;14738;42.668;23.250;2023-04-23T12:27:32;48469.72;;;-141.90;22.33
5298;BME280;14738;42.668;23.250;2023-04-23T12:30:00;48453.81;;;-141.90;20.92
5298;BME280;14738;42.668;23.250;2023-04-23T12:32:26;48503.47;;;-141.90;22.26
5298;BME280;14738;42.668;23.250;2023-04-23T12:34:54;48485.59;;;-141.90;22.57
5298;BME280;14738;42.668;23.250;2023-04-23T12:37:24;48471.69;;;-141.90;23.43
5298;BME280;14738;42.668;23.250;2023-04-23T12:39:54;48515.38;;;-141.90;22.77